sensor_id;sensor_type;location;lat;lon;timestamp;temperature;humidity
54518;DHT22;40423;53.176;6.002;2023-06-22T00:02:13;18.60;99.90
54518;DHT22;40423;53.176;6.002;2023-06-22T00:04:39;18.60;99.90
54518;DHT22;40423;53.176;6.002;2023-06-22T00:07:08;18.50;99.90
54518;DHT22;40423;53.176;6.002;2023-06-22T00:09:34;18.40;99.90
54518;DHT22;40423;53.176;6.002;2023-06-22T00:11:59;18.50;99.90
54518;DHT22;40423;53.176;6.002;2023-06-22T00:14:28;18.40;99.90
54518;DHT22;40423;53.176;6.002;2023-06-22T00:16:54;18.40;99.90
54518;DHT22;40423;53.176;6.002;2023-06-22T00:19:24;18.30;99.90
54518;DHT22;40423;53.176;6.002;2023-06-22T00:21:50;18.30;99.90
54518;DHT22;40423;53.176;6.002;2023-06-22T00:24:20;18.30;99.90
54518;DHT22;40423;53.176;6.002;2023-06-22T00:26:47;18.20;99.90
54518;DHT22;40423;53.176;6.002;2023-06-22T00:29:13;18.20;99.90
54518;DHT22;40423;53.176;6.002;2023-06-22T00:31:39;18.20;99.90
54518;DHT22;40423;53.176;6.002;2023-06-22T00:34:04;18.20;99.90
54518;DHT22;40423;53.176;6.002;2023-06-22T00:36:32;18.20;99.90
54518;DHT22;40423;53.176;6.002;2023-06-22T00:38:58;18.20;99.90
54518;DHT22;40423;53.176;6.002;2023-06-22T00:41:23;18.10;99.90
54518;DHT22;40423;53.176;6.002;2023-06-22T00:43:54;18.10;99.90
54518;DHT22;40423;53.176;6.002;2023-06-22T00:46:23;18.20;99.90
54518;DHT22;40423;53.176;6.002;2023-06-22T00:48:50;18.20;99.90
54518;DHT22;40423;53.176;6.002;2023-06-22T00:51:17;18.20;99.90
54518;DHT22;40423;53.176;6.002;2023-06-22T00:53:43;18.10;99.90
54518;DHT22;40423;53.176;6.002;2023-06-22T00:56:09;18.10;99.90
54518;DHT22;40423;53.176;6.002;2023-06-22T00:58:37;18.10;99.90
54518;DHT22;40423;53.176;6.002;2023-06-22T01:01:07;18.10;99.90
54518;DHT22;40423;53.176;6.002;2023-06-22T01:03:32;18.00;99.90
54518;DHT22;40423;53.176;6.002;2023-06-22T01:06:04;18.00;99.90
54518;DHT22;40423;53.176;6.002;2023-06-22T01:11:11;18.00;99.90
54518;DHT22;40423;53.176;6.002;2023-06-22T01:13:47;18.00;99.90
54518;DHT22;40423;53.176;6.002;2023-06-22T01:16:29;18.00;99.90
54518;DHT22;40423;53.176;6.002;2023-06-22T01:19:25;17.90;99.90
54518;DHT22;40423;53.176;6.002;2023-06-22T01:21:59;17.90;99.90
54518;DHT22;40423;53.176;6.002;2023-06-22T01:24:33;17.80;99.90
54518;DHT22;40423;53.176;6.002;2023-06-22T01:29:51;17.70;99.90
54518;DHT22;40423;53.176;6.002;2023-06-22T01:32:18;17.70;99.90
54518;DHT22;40423;53.176;6.002;2023-06-22T01:34:46;17.70;99.90
54518;DHT22;40423;53.176;6.002;2023-06-22T01:37:13;17.70;99.90
54518;DHT22;40423;53.176;6.002;2023-06-22T01:39:40;17.70;99.90
54518;DHT22;40423;53.176;6.002;2023-06-22T01:42:06;17.70;99.90
54518;DHT22;40423;53.176;6.002;2023-06-22T01:44:33;17.70;99.90
54518;DHT22;40423;53.176;6.002;2023-06-22T01:47:02;17.70;99.90
54518;DHT22;40423;53.176;6.002;2023-06-22T01:49:28;17.70;99.90
54518;DHT22;40423;53.176;6.002;2023-06-22T01:51:54;17.70;99.90
54518;DHT22;40423;53.176;6.002;2023-06-22T01:54:20;17.70;99.90
54518;DHT22;40423;53.176;6.002;2023-06-22T01:56:46;17.70;99.90
54518;DHT22;40423;53.176;6.002;2023-06-22T01:59:25;17.70;99.90
54518;DHT22;40423;53.176;6.002;2023-06-22T02:02:04;17.70;99.90
54518;DHT22;40423;53.176;6.002;2023-06-22T02:04:39;17.70;99.90
54518;DHT22;40423;53.176;6.002;2023-06-22T02:07:12;17.70;99.90
54518;DHT22;40423;53.176;6.002;2023-06-22T02:09:45;17.70;99.90
54518;DHT22;40423;53.176;6.002;2023-06-22T02:12:13;17.60;99.90
54518;DHT22;40423;53.176;6.002;2023-06-22T02:14:42;17.50;99.90
54518;DHT22;40423;53.176;6.002;2023-06-22T02:17:09;17.50;99.90
54518;DHT22;40423;53.176;6.002;2023-06-22T02:19:41;17.50;99.90
54518;DHT22;40423;53.176;6.002;2023-06-22T02:22:06;17.50;99.90
54518;DHT22;40423;53.176;6.002;2023-06-22T02:24:32;17.40;99.90
54518;DHT22;40423;53.176;6.002;2023-06-22T02:26:59;17.40;99.90
54518;DHT22;40423;53.176;6.002;2023-06-22T02:29:25;17.30;99.90
54518;DHT22;40423;53.176;6.002;2023-06-22T02:31:52;17.40;99.90
54518;DHT22;40423;53.176;6.002;2023-06-22T02:34:18;17.40;99.90
54518;DHT22;40423;53.176;6.002;2023-06-22T02:36:46;17.30;99.90
54518;DHT22;40423;53.176;6.002;2023-06-22T02:39:23;17.30;99.90
54518;DHT22;40423;53.176;6.002;2023-06-22T02:41:54;17.20;99.90
54518;DHT22;40423;53.176;6.002;2023-06-22T02:44:20;17.20;99.90
54518;DHT22;40423;53.176;6.002;2023-06-22T02:46:47;17.20;99.90
54518;DHT22;40423;53.176;6.002;2023-06-22T02:49:13;17.30;99.90
54518;DHT22;40423;53.176;6.002;2023-06-22T02:51:41;17.30;99.90
54518;DHT22;40423;53.176;6.002;2023-06-22T02:54:07;17.30;99.90
54518;DHT22;40423;53.176;6.002;2023-06-22T02:56:33;17.30;99.90
54518;DHT22;40423;53.176;6.002;2023-06-22T02:58:58;17.20;99.90
54518;DHT22;40423;53.176;6.002;2023-06-22T03:01:28;17.20;99.90
54518;DHT22;40423;53.176;6.002;2023-06-22T03:03:56;17.20;99.90
54518;DHT22;40423;53.176;6.002;2023-06-22T03:06:22;17.20;99.90
54518;DHT22;40423;53.176;6.002;2023-06-22T03:08:49;17.20;99.90
54518;DHT22;40423;53.176;6.002;2023-06-22T03:11:18;17.10;99.90
54518;DHT22;40423;53.176;6.002;2023-06-22T03:13:43;17.10;99.90
54518;DHT22;40423;53.176;6.002;2023-06-22T03:16:11;17.00;99.90
54518;DHT22;40423;53.176;6.002;2023-06-22T03:18:37;17.00;99.90
54518;DHT22;40423;53.176;6.002;2023-06-22T03:21:03;17.00;99.90
54518;DHT22;40423;53.176;6.002;2023-06-22T03:23:28;17.00;99.90
54518;DHT22;40423;53.176;6.002;2023-06-22T03:25:54;17.00;99.90
54518;DHT22;40423;53.176;6.002;2023-06-22T03:28:21;17.00;99.90
54518;DHT22;40423;53.176;6.002;2023-06-22T03:30:47;17.00;99.90
54518;DHT22;40423;53.176;6.002;2023-06-22T03:33:13;17.10;99.90
54518;DHT22;40423;53.176;6.002;2023-06-22T03:35:39;17.10;99.90
54518;DHT22;40423;53.176;6.002;2023-06-22T03:38:04;17.00;99.90
54518;DHT22;40423;53.176;6.002;2023-06-22T03:40:30;17.00;99.90
54518;DHT22;40423;53.176;6.002;2023-06-22T03:42:57;17.00;99.90
54518;DHT22;40423;53.176;6.002;2023-06-22T03:45:23;17.00;99.90
54518;DHT22;40423;53.176;6.002;2023-06-22T03:47:48;17.00;99.90
54518;DHT22;40423;53.176;6.002;2023-06-22T03:50:14;16.90;99.90
54518;DHT22;40423;53.176;6.002;2023-06-22T03:52:40;16.90;99.90
54518;DHT22;40423;53.176;6.002;2023-06-22T03:55:07;16.90;99.90
54518;DHT22;40423;53.176;6.002;2023-06-22T03:57:33;17.00;99.90
54518;DHT22;40423;53.176;6.002;2023-06-22T03:59:59;17.00;99.90
54518;DHT22;40423;53.176;6.002;2023-06-22T04:02:25;17.10;99.90
54518;DHT22;40423;53.176;6.002;2023-06-22T04:04:51;17.10;99.90
54518;DHT22;40423;53.176;6.002;2023-06-22T04:07:17;17.10;99.90
54518;DHT22;40423;53.176;6.002;2023-06-22T04:09:43;17.10;99.90
54518;DHT22;40423;53.176;6.002;2023-06-22T04:12:09;17.10;99.90
54518;DHT22;40423;53.176;6.002;2023-06-22T04:14:35;17.10;99.90
54518;DHT22;40423;53.176;6.002;2023-06-22T04:17:01;17.10;99.90
54518;DHT22;40423;53.176;6.002;2023-06-22T04:19:27;17.10;99.90
54518;DHT22;40423;53.176;6.002;2023-06-22T04:21:52;17.10;99.90
54518;DHT22;40423;53.176;6.002;2023-06-22T04:24:18;17.10;99.90
54518;DHT22;40423;53.176;6.002;2023-06-22T04:26:44;17.10;99.90
54518;DHT22;40423;53.176;6.002;2023-06-22T04:29:12;17.10;99.90
54518;DHT22;40423;53.176;6.002;2023-06-22T04:31:38;17.10;99.90
54518;DHT22;40423;53.176;6.002;2023-06-22T04:34:04;17.10;99.90
54518;DHT22;40423;53.176;6.002;2023-06-22T04:36:40;17.20;99.90
54518;DHT22;40423;53.176;6.002;2023-06-22T04:39:10;17.20;99.90
54518;DHT22;40423;53.176;6.002;2023-06-22T04:41:37;17.20;99.90
54518;DHT22;40423;53.176;6.002;2023-06-22T04:44:16;17.30;99.90
54518;DHT22;40423;53.176;6.002;2023-06-22T04:46:53;17.30;99.90
54518;DHT22;40423;53.176;6.002;2023-06-22T04:49:20;17.30;99.90
54518;DHT22;40423;53.176;6.002;2023-06-22T04:51:47;17.30;99.90
54518;DHT22;40423;53.176;6.002;2023-06-22T04:54:13;17.40;99.90
54518;DHT22;40423;53.176;6.002;2023-06-22T04:56:39;17.40;99.90
54518;DHT22;40423;53.176;6.002;2023-06-22T04:59:06;17.40;99.90
54518;DHT22;40423;53.176;6.002;2023-06-22T05:01:32;17.40;99.90
54518;DHT22;40423;53.176;6.002;2023-06-22T05:04:00;17.40;99.90
54518;DHT22;40423;53.176;6.002;2023-06-22T05:06:27;17.50;99.90
54518;DHT22;40423;53.176;6.002;2023-06-22T05:08:57;17.50;99.90
54518;DHT22;40423;53.176;6.002;2023-06-22T05:11:27;17.50;99.90
54518;DHT22;40423;53.176;6.002;2023-06-22T05:13:53;17.60;99.90
54518;DHT22;40423;53.176;6.002;2023-06-22T05:16:20;17.60;99.90
54518;DHT22;40423;53.176;6.002;2023-06-22T05:18:55;17.70;99.90
54518;DHT22;40423;53.176;6.002;2023-06-22T05:21:26;17.70;99.90
54518;DHT22;40423;53.176;6.002;2023-06-22T05:23:55;17.80;99.90
54518;DHT22;40423;53.176;6.002;2023-06-22T05:26:26;17.90;99.90
54518;DHT22;40423;53.176;6.002;2023-06-22T05:28:52;17.90;99.90
54518;DHT22;40423;53.176;6.002;2023-06-22T05:31:19;17.90;99.90
54518;DHT22;40423;53.176;6.002;2023-06-22T05:33:45;18.00;99.90
54518;DHT22;40423;53.176;6.002;2023-06-22T05:36:12;18.10;99.90
54518;DHT22;40423;53.176;6.002;2023-06-22T05:38:38;18.20;99.90
54518;DHT22;40423;53.176;6.002;2023-06-22T05:41:04;18.30;99.90
54518;DHT22;40423;53.176;6.002;2023-06-22T05:43:30;18.30;99.90
54518;DHT22;40423;53.176;6.002;2023-06-22T05:45:57;18.50;99.90
54518;DHT22;40423;53.176;6.002;2023-06-22T05:48:22;18.50;99.90
54518;DHT22;40423;53.176;6.002;2023-06-22T05:50:48;18.60;99.90
54518;DHT22;40423;53.176;6.002;2023-06-22T05:53:14;18.70;99.90
54518;DHT22;40423;53.176;6.002;2023-06-22T05:55:40;18.80;99.90
54518;DHT22;40423;53.176;6.002;2023-06-22T05:58:06;18.90;99.90
54518;DHT22;40423;53.176;6.002;2023-06-22T06:00:32;19.00;99.90
54518;DHT22;40423;53.176;6.002;2023-06-22T06:02:58;19.00;99.90
54518;DHT22;40423;53.176;6.002;2023-06-22T06:05:31;19.10;99.90
54518;DHT22;40423;53.176;6.002;2023-06-22T06:07:59;19.20;99.90
54518;DHT22;40423;53.176;6.002;2023-06-22T06:10:25;19.30;99.90
54518;DHT22;40423;53.176;6.002;2023-06-22T06:12:51;19.30;99.90
54518;DHT22;40423;53.176;6.002;2023-06-22T06:15:17;19.30;99.90
54518;DHT22;40423;53.176;6.002;2023-06-22T06:17:50;19.30;99.90
54518;DHT22;40423;53.176;6.002;2023-06-22T06:20:20;19.30;99.90
54518;DHT22;40423;53.176;6.002;2023-06-22T06:22:46;19.40;99.90
54518;DHT22;40423;53.176;6.002;2023-06-22T06:25:12;19.40;99.90
54518;DHT22;40423;53.176;6.002;2023-06-22T06:27:48;19.40;99.90
54518;DHT22;40423;53.176;6.002;2023-06-22T06:30:17;19.50;99.90
54518;DHT22;40423;53.176;6.002;2023-06-22T06:32:43;19.50;99.90
54518;DHT22;40423;53.176;6.002;2023-06-22T06:35:11;19.50;99.90
54518;DHT22;40423;53.176;6.002;2023-06-22T06:37:42;19.60;99.90
54518;DHT22;40423;53.176;6.002;2023-06-22T06:40:09;19.70;99.90
54518;DHT22;40423;53.176;6.002;2023-06-22T06:42:39;19.60;99.90
54518;DHT22;40423;53.176;6.002;2023-06-22T06:45:08;19.60;99.90
54518;DHT22;40423;53.176;6.002;2023-06-22T06:47:34;19.70;99.90
54518;DHT22;40423;53.176;6.002;2023-06-22T06:49:59;19.70;99.90
54518;DHT22;40423;53.176;6.002;2023-06-22T06:52:25;19.70;99.90
54518;DHT22;40423;53.176;6.002;2023-06-22T06:54:52;19.80;99.90
54518;DHT22;40423;53.176;6.002;2023-06-22T06:57:18;19.90;99.90
54518;DHT22;40423;53.176;6.002;2023-06-22T06:59:44;20.00;99.90
54518;DHT22;40423;53.176;6.002;2023-06-22T07:02:09;20.10;99.90
54518;DHT22;40423;53.176;6.002;2023-06-22T07:04:35;20.10;99.90
54518;DHT22;40423;53.176;6.002;2023-06-22T07:07:02;20.20;99.90
54518;DHT22;40423;53.176;6.002;2023-06-22T07:09:28;20.30;99.90
54518;DHT22;40423;53.176;6.002;2023-06-22T07:11:54;20.40;99.90
54518;DHT22;40423;53.176;6.002;2023-06-22T07:14:19;20.40;99.90
54518;DHT22;40423;53.176;6.002;2023-06-22T07:16:45;20.50;99.90
54518;DHT22;40423;53.176;6.002;2023-06-22T07:19:13;20.70;99.90
54518;DHT22;40423;53.176;6.002;2023-06-22T07:21:39;20.80;99.90
54518;DHT22;40423;53.176;6.002;2023-06-22T07:24:06;20.80;99.90
54518;DHT22;40423;53.176;6.002;2023-06-22T07:26:32;20.90;99.90
54518;DHT22;40423;53.176;6.002;2023-06-22T07:28:58;21.10;99.90
54518;DHT22;40423;53.176;6.002;2023-06-22T07:31:25;21.20;99.90
54518;DHT22;40423;53.176;6.002;2023-06-22T07:33:51;21.30;99.90
54518;DHT22;40423;53.176;6.002;2023-06-22T07:36:17;21.40;99.90
54518;DHT22;40423;53.176;6.002;2023-06-22T07:38:43;21.50;99.90
54518;DHT22;40423;53.176;6.002;2023-06-22T07:41:09;21.50;99.90
54518;DHT22;40423;53.176;6.002;2023-06-22T07:43:35;21.50;99.90
54518;DHT22;40423;53.176;6.002;2023-06-22T07:46:05;21.60;99.90
54518;DHT22;40423;53.176;6.002;2023-06-22T07:48:31;21.70;99.90
54518;DHT22;40423;53.176;6.002;2023-06-22T07:50:57;21.70;99.90
54518;DHT22;40423;53.176;6.002;2023-06-22T07:53:23;21.90;99.90
54518;DHT22;40423;53.176;6.002;2023-06-22T07:55:49;22.00;99.90
54518;DHT22;40423;53.176;6.002;2023-06-22T07:58:15;22.00;99.90
54518;DHT22;40423;53.176;6.002;2023-06-22T08:00:46;22.10;99.90
54518;DHT22;40423;53.176;6.002;2023-06-22T08:03:12;22.10;99.90
54518;DHT22;40423;53.176;6.002;2023-06-22T08:05:39;22.20;99.90
54518;DHT22;40423;53.176;6.002;2023-06-22T08:08:04;22.20;99.90
54518;DHT22;40423;53.176;6.002;2023-06-22T08:10:30;22.30;99.90
54518;DHT22;40423;53.176;6.002;2023-06-22T08:12:56;22.30;99.90
54518;DHT22;40423;53.176;6.002;2023-06-22T08:15:21;22.40;99.90
54518;DHT22;40423;53.176;6.002;2023-06-22T08:17:47;22.50;99.90
54518;DHT22;40423;53.176;6.002;2023-06-22T08:20:13;22.60;99.90
54518;DHT22;40423;53.176;6.002;2023-06-22T08:22:40;22.70;99.90
54518;DHT22;40423;53.176;6.002;2023-06-22T08:25:07;22.80;99.90
54518;DHT22;40423;53.176;6.002;2023-06-22T08:27:33;22.80;99.90
54518;DHT22;40423;53.176;6.002;2023-06-22T08:29:59;23.00;99.90
54518;DHT22;40423;53.176;6.002;2023-06-22T08:32:27;23.10;99.90
54518;DHT22;40423;53.176;6.002;2023-06-22T08:34:54;23.20;99.90
54518;DHT22;40423;53.176;6.002;2023-06-22T08:37:20;23.30;99.90
54518;DHT22;40423;53.176;6.002;2023-06-22T08:39:46;23.40;99.90
54518;DHT22;40423;53.176;6.002;2023-06-22T08:42:12;23.40;99.90
54518;DHT22;40423;53.176;6.002;2023-06-22T08:44:38;23.50;99.90
54518;DHT22;40423;53.176;6.002;2023-06-22T08:47:03;23.50;99.90
54518;DHT22;40423;53.176;6.002;2023-06-22T08:49:29;23.40;99.90
54518;DHT22;40423;53.176;6.002;2023-06-22T08:51:55;23.60;99.90
54518;DHT22;40423;53.176;6.002;2023-06-22T08:54:22;23.70;99.90
54518;DHT22;40423;53.176;6.002;2023-06-22T08:56:48;23.80;99.90
54518;DHT22;40423;53.176;6.002;2023-06-22T08:59:14;23.90;99.90
54518;DHT22;40423;53.176;6.002;2023-06-22T09:01:39;24.00;99.90
54518;DHT22;40423;53.176;6.002;2023-06-22T09:04:05;24.00;99.90
54518;DHT22;40423;53.176;6.002;2023-06-22T09:06:33;24.10;99.90
54518;DHT22;40423;53.176;6.002;2023-06-22T09:08:58;24.00;99.90
54518;DHT22;40423;53.176;6.002;2023-06-22T09:11:25;24.10;99.90
54518;DHT22;40423;53.176;6.002;2023-06-22T09:13:51;24.20;99.90
54518;DHT22;40423;53.176;6.002;2023-06-22T09:16:18;24.10;99.90
54518;DHT22;40423;53.176;6.002;2023-06-22T09:18:47;24.10;99.90
54518;DHT22;40423;53.176;6.002;2023-06-22T09:21:13;24.30;99.90
54518;DHT22;40423;53.176;6.002;2023-06-22T09:23:38;24.40;99.90
54518;DHT22;40423;53.176;6.002;2023-06-22T09:26:04;24.50;99.90
54518;DHT22;40423;53.176;6.002;2023-06-22T09:28:30;24.50;99.90
54518;DHT22;40423;53.176;6.002;2023-06-22T09:30:56;24.70;99.90
54518;DHT22;40423;53.176;6.002;2023-06-22T09:33:24;24.80;99.90
54518;DHT22;40423;53.176;6.002;2023-06-22T09:35:50;24.60;99.80
54518;DHT22;40423;53.176;6.002;2023-06-22T09:38:16;24.60;99.90
54518;DHT22;40423;53.176;6.002;2023-06-22T09:40:42;24.80;99.90
54518;DHT22;40423;53.176;6.002;2023-06-22T09:43:08;25.10;99.90
54518;DHT22;40423;53.176;6.002;2023-06-22T09:45:34;25.30;99.90
54518;DHT22;40423;53.176;6.002;2023-06-22T09:48:00;25.40;99.80
54518;DHT22;40423;53.176;6.002;2023-06-22T09:50:25;25.40;99.50
54518;DHT22;40423;53.176;6.002;2023-06-22T09:52:51;25.40;98.70
54518;DHT22;40423;53.176;6.002;2023-06-22T09:55:21;25.50;98.30
54518;DHT22;40423;53.176;6.002;2023-06-22T09:57:47;25.40;97.70
54518;DHT22;40423;53.176;6.002;2023-06-22T10:00:13;25.30;98.50
54518;DHT22;40423;53.176;6.002;2023-06-22T10:02:43;25.50;98.00
54518;DHT22;40423;53.176;6.002;2023-06-22T10:05:09;25.70;98.10
54518;DHT22;40423;53.176;6.002;2023-06-22T10:07:35;25.90;98.60
54518;DHT22;40423;53.176;6.002;2023-06-22T10:10:06;26.00;97.50
54518;DHT22;40423;53.176;6.002;2023-06-22T10:12:32;26.00;97.40
54518;DHT22;40423;53.176;6.002;2023-06-22T10:14:57;26.20;97.60
54518;DHT22;40423;53.176;6.002;2023-06-22T10:17:23;26.20;96.90
54518;DHT22;40423;53.176;6.002;2023-06-22T10:19:49;26.20;96.70
54518;DHT22;40423;53.176;6.002;2023-06-22T10:22:15;26.40;96.70
54518;DHT22;40423;53.176;6.002;2023-06-22T10:24:40;26.40;96.40
54518;DHT22;40423;53.176;6.002;2023-06-22T10:27:13;26.20;96.00
54518;DHT22;40423;53.176;6.002;2023-06-22T10:29:41;26.20;95.80
54518;DHT22;40423;53.176;6.002;2023-06-22T10:32:07;26.40;96.00
54518;DHT22;40423;53.176;6.002;2023-06-22T10:34:33;26.40;95.40
54518;DHT22;40423;53.176;6.002;2023-06-22T10:36:59;26.30;95.40
54518;DHT22;40423;53.176;6.002;2023-06-22T10:39:24;26.30;95.40
54518;DHT22;40423;53.176;6.002;2023-06-22T10:41:50;26.40;95.30
54518;DHT22;40423;53.176;6.002;2023-06-22T10:44:16;26.40;95.20
54518;DHT22;40423;53.176;6.002;2023-06-22T10:46:43;26.60;94.80
54518;DHT22;40423;53.176;6.002;2023-06-22T10:49:08;26.70;94.90
54518;DHT22;40423;53.176;6.002;2023-06-22T10:51:34;26.90;94.60
54518;DHT22;40423;53.176;6.002;2023-06-22T10:54:00;26.90;93.70
54518;DHT22;40423;53.176;6.002;2023-06-22T10:56:25;27.00;94.00
54518;DHT22;40423;53.176;6.002;2023-06-22T10:58:51;26.90;93.10
54518;DHT22;40423;53.176;6.002;2023-06-22T11:01:17;26.70;92.90
54518;DHT22;40423;53.176;6.002;2023-06-22T11:03:42;26.70;93.40
54518;DHT22;40423;53.176;6.002;2023-06-22T11:06:08;26.90;93.60
54518;DHT22;40423;53.176;6.002;2023-06-22T11:08:34;27.00;93.00
54518;DHT22;40423;53.176;6.002;2023-06-22T11:10:59;27.10;92.20
54518;DHT22;40423;53.176;6.002;2023-06-22T11:13:25;27.10;92.50
54518;DHT22;40423;53.176;6.002;2023-06-22T11:15:51;27.20;92.00
54518;DHT22;40423;53.176;6.002;2023-06-22T11:18:16;27.30;91.70
54518;DHT22;40423;53.176;6.002;2023-06-22T11:20:42;27.30;91.60
54518;DHT22;40423;53.176;6.002;2023-06-22T11:23:08;27.20;91.70
54518;DHT22;40423;53.176;6.002;2023-06-22T11:25:34;27.20;92.40
54518;DHT22;40423;53.176;6.002;2023-06-22T11:28:02;27.20;92.40
54518;DHT22;40423;53.176;6.002;2023-06-22T11:30:28;27.10;92.50
54518;DHT22;40423;53.176;6.002;2023-06-22T11:32:54;27.20;92.40
54518;DHT22;40423;53.176;6.002;2023-06-22T11:35:20;27.20;93.10
54518;DHT22;40423;53.176;6.002;2023-06-22T11:37:46;27.20;92.10
54518;DHT22;40423;53.176;6.002;2023-06-22T11:40:12;27.10;92.40
54518;DHT22;40423;53.176;6.002;2023-06-22T11:42:37;27.00;92.60
54518;DHT22;40423;53.176;6.002;2023-06-22T11:45:05;26.90;92.90
54518;DHT22;40423;53.176;6.002;2023-06-22T11:47:31;26.90;93.30
54518;DHT22;40423;53.176;6.002;2023-06-22T11:49:56;27.10;93.90
54518;DHT22;40423;53.176;6.002;2023-06-22T11:52:22;27.10;93.60
54518;DHT22;40423;53.176;6.002;2023-06-22T11:54:48;27.30;93.50
54518;DHT22;40423;53.176;6.002;2023-06-22T11:57:13;27.40;93.70
54518;DHT22;40423;53.176;6.002;2023-06-22T11:59:39;27.40;93.70
54518;DHT22;40423;53.176;6.002;2023-06-22T12:02:05;27.10;92.80
54518;DHT22;40423;53.176;6.002;2023-06-22T12:04:32;27.10;93.60
54518;DHT22;40423;53.176;6.002;2023-06-22T12:06:58;26.80;93.50
54518;DHT22;40423;53.176;6.002;2023-06-22T12:09:24;26.60;93.70
54518;DHT22;40423;53.176;6.002;2023-06-22T12:11:50;26.50;94.00
54518;DHT22;40423;53.176;6.002;2023-06-22T12:14:15;26.40;93.70
54518;DHT22;40423;53.176;6.002;2023-06-22T12:16:41;26.30;93.70
54518;DHT22;40423;53.176;6.002;2023-06-22T12:19:09;26.30;93.70
54518;DHT22;40423;53.176;6.002;2023-06-22T12:21:36;26.10;94.00
54518;DHT22;40423;53.176;6.002;2023-06-22T12:24:02;26.00;94.20
54518;DHT22;40423;53.176;6.002;2023-06-22T12:26:28;25.90;94.20
54518;DHT22;40423;53.176;6.002;2023-06-22T12:28:53;25.90;94.20
54518;DHT22;40423;53.176;6.002;2023-06-22T12:31:19;25.90;94.20
54518;DHT22;40423;53.176;6.002;2023-06-22T12:33:45;25.90;94.10
54518;DHT22;40423;53.176;6.002;2023-06-22T12:36:10;25.80;93.80
54518;DHT22;40423;53.176;6.002;2023-06-22T12:38:36;25.70;93.80
54518;DHT22;40423;53.176;6.002;2023-06-22T12:41:02;25.60;94.10
54518;DHT22;40423;53.176;6.002;2023-06-22T12:43:28;25.50;94.30
54518;DHT22;40423;53.176;6.002;2023-06-22T12:45:53;25.60;94.50
54518;DHT22;40423;53.176;6.002;2023-06-22T12:48:19;25.60;94.10
54518;DHT22;40423;53.176;6.002;2023-06-22T12:50:45;25.60;94.10
54518;DHT22;40423;53.176;6.002;2023-06-22T12:53:13;25.60;94.40
54518;DHT22;40423;53.176;6.002;2023-06-22T12:55:39;25.60;94.50
54518;DHT22;40423;53.176;6.002;2023-06-22T12:58:04;25.50;94.00
54518;DHT22;40423;53.176;6.002;2023-06-22T13:00:30;25.50;94.40
54518;DHT22;40423;53.176;6.002;2023-06-22T13:02:56;25.40;94.30
54518;DHT22;40423;53.176;6.002;2023-06-22T13:05:21;25.40;94.40
54518;DHT22;40423;53.176;6.002;2023-06-22T13:07:48;25.50;94.50
54518;DHT22;40423;53.176;6.002;2023-06-22T13:10:14;25.30;94.10
54518;DHT22;40423;53.176;6.002;2023-06-22T13:12:39;25.40;94.20
54518;DHT22;40423;53.176;6.002;2023-06-22T13:15:06;25.30;94.00
54518;DHT22;40423;53.176;6.002;2023-06-22T13:17:31;25.10;94.00
54518;DHT22;40423;53.176;6.002;2023-06-22T13:19:57;25.10;94.30
54518;DHT22;40423;53.176;6.002;2023-06-22T13:24:52;25.10;94.40
54518;DHT22;40423;53.176;6.002;2023-06-22T13:27:17;25.00;94.40
54518;DHT22;40423;53.176;6.002;2023-06-22T13:29:43;24.90;94.30
54518;DHT22;40423;53.176;6.002;2023-06-22T13:32:08;24.90;94.40
54518;DHT22;40423;53.176;6.002;2023-06-22T13:34:34;24.80;94.30
54518;DHT22;40423;53.176;6.002;2023-06-22T13:37:00;24.70;94.50
54518;DHT22;40423;53.176;6.002;2023-06-22T13:39:26;24.60;94.60
54518;DHT22;40423;53.176;6.002;2023-06-22T13:41:51;24.50;94.60
54518;DHT22;40423;53.176;6.002;2023-06-22T13:44:17;24.50;94.90
54518;DHT22;40423;53.176;6.002;2023-06-22T13:46:43;24.50;94.90
54518;DHT22;40423;53.176;6.002;2023-06-22T13:49:09;24.60;95.20
54518;DHT22;40423;53.176;6.002;2023-06-22T13:51:35;24.60;95.30
54518;DHT22;40423;53.176;6.002;2023-06-22T13:54:01;24.60;94.80
54518;DHT22;40423;53.176;6.002;2023-06-22T13:56:27;24.50;94.50
54518;DHT22;40423;53.176;6.002;2023-06-22T13:58:53;24.50;94.90
54518;DHT22;40423;53.176;6.002;2023-06-22T14:01:18;24.40;94.60
54518;DHT22;40423;53.176;6.002;2023-06-22T14:03:44;24.30;94.80
54518;DHT22;40423;53.176;6.002;2023-06-22T14:06:12;24.10;94.80
54518;DHT22;40423;53.176;6.002;2023-06-22T14:08:38;24.10;94.90
54518;DHT22;40423;53.176;6.002;2023-06-22T14:11:03;24.00;94.40
54518;DHT22;40423;53.176;6.002;2023-06-22T14:13:29;23.90;94.30
54518;DHT22;40423;53.176;6.002;2023-06-22T14:15:55;23.80;94.50
54518;DHT22;40423;53.176;6.002;2023-06-22T14:18:21;23.80;94.40
54518;DHT22;40423;53.176;6.002;2023-06-22T14:20:48;23.80;94.20
54518;DHT22;40423;53.176;6.002;2023-06-22T14:23:14;23.60;94.20
54518;DHT22;40423;53.176;6.002;2023-06-22T14:25:40;23.50;94.20
54518;DHT22;40423;53.176;6.002;2023-06-22T14:28:06;23.40;93.90
54518;DHT22;40423;53.176;6.002;2023-06-22T14:30:32;23.40;94.20
54518;DHT22;40423;53.176;6.002;2023-06-22T14:32:57;23.30;94.40
54518;DHT22;40423;53.176;6.002;2023-06-22T14:35:23;23.20;94.70
54518;DHT22;40423;53.176;6.002;2023-06-22T14:37:50;23.20;94.90
54518;DHT22;40423;53.176;6.002;2023-06-22T14:40:16;23.30;95.10
54518;DHT22;40423;53.176;6.002;2023-06-22T14:42:41;23.40;94.70
54518;DHT22;40423;53.176;6.002;2023-06-22T14:45:07;23.30;94.40
54518;DHT22;40423;53.176;6.002;2023-06-22T14:47:33;23.30;94.20
54518;DHT22;40423;53.176;6.002;2023-06-22T14:49:59;23.30;94.10
54518;DHT22;40423;53.176;6.002;2023-06-22T14:52:27;23.30;94.40
54518;DHT22;40423;53.176;6.002;2023-06-22T14:54:53;23.20;94.10
54518;DHT22;40423;53.176;6.002;2023-06-22T14:57:19;23.20;94.00
54518;DHT22;40423;53.176;6.002;2023-06-22T14:59:46;23.20;94.10
54518;DHT22;40423;53.176;6.002;2023-06-22T15:02:14;23.20;94.30
54518;DHT22;40423;53.176;6.002;2023-06-22T15:04:40;23.20;94.30
54518;DHT22;40423;53.176;6.002;2023-06-22T15:07:06;23.20;94.00
54518;DHT22;40423;53.176;6.002;2023-06-22T15:09:31;23.20;93.80
54518;DHT22;40423;53.176;6.002;2023-06-22T15:11:59;23.20;93.60
54518;DHT22;40423;53.176;6.002;2023-06-22T15:14:27;23.10;93.70
54518;DHT22;40423;53.176;6.002;2023-06-22T15:16:53;23.00;93.80
54518;DHT22;40423;53.176;6.002;2023-06-22T15:19:19;23.10;93.90
54518;DHT22;40423;53.176;6.002;2023-06-22T15:21:45;23.00;93.90
54518;DHT22;40423;53.176;6.002;2023-06-22T15:24:11;23.00;94.00
54518;DHT22;40423;53.176;6.002;2023-06-22T15:26:37;23.00;93.60
54518;DHT22;40423;53.176;6.002;2023-06-22T15:29:03;23.10;93.80
54518;DHT22;40423;53.176;6.002;2023-06-22T15:31:29;23.00;93.50
54518;DHT22;40423;53.176;6.002;2023-06-22T15:33:54;23.00;93.30
54518;DHT22;40423;53.176;6.002;2023-06-22T15:36:20;23.00;93.50